Time;durP1;ratioP1;P1;durP2;ratioP2;P2;SDS_P1;SDS_P2;PMS_P1;PMS_P2;Temp;Humidity;BMP_temperature;BMP_pressure;BME280_temperature;BME280_humidity;BME280_pressure;Samples;Min_cycle;Max_cycle;Signal;HPM_P1;HPM_P2
2022/07/15 00:01:36;;;;;;;6.18;3.83;;;;;;;22.86;64.69;99356.25;5072253;28;20194;-60
2022/07/15 00:04:03;;;;;;;8.77;3.90;;;;;;;22.73;65.24;99362.50;5072185;28;20199;-60
2022/07/15 00:06:30;;;;;;;6.00;4.18;;;;;;;22.65;65.92;99366.75;5071983;28;20200;-59
2022/07/15 00:08:58;;;;;;;17.33;4.40;;;;;;;22.57;66.36;99356.78;5071928;28;20232;-54
2022/07/15 00:11:25;;;;;;;5.53;4.60;;;;;;;22.42;67.83;99356.22;5071635;28;20283;-54
2022/07/15 00:13:52;;;;;;;6.40;4.13;;;;;;;22.31;68.73;99347.44;5071863;28;20204;-54
2022/07/15 00:16:19;;;;;;;9.10;4.10;;;;;;;22.23;68.57;99342.78;5070677;28;20207;-55
2022/07/15 00:18:46;;;;;;;5.40;4.20;;;;;;;22.26;67.99;99350.44;5071805;28;20202;-55
2022/07/15 00:21:13;;;;;;;4.57;4.18;;;;;;;22.33;66.83;99346.38;5071848;28;20206;-60
2022/07/15 00:23:40;;;;;;;9.23;4.30;;;;;;;22.39;66.16;99345.03;5072322;28;20579;-59
2022/07/15 00:26:09;;;;;;;4.88;3.92;;;;;;;22.38;66.55;99352.13;5071885;28;20591;-58
2022/07/15 00:28:36;;;;;;;6.20;3.78;;;;;;;22.34;66.82;99347.22;5071736;28;20199;-59
2022/07/15 00:31:03;;;;;;;4.25;3.80;;;;;;;22.30;67.16;99341.31;5071917;28;20203;-59
2022/07/15 00:33:30;;;;;;;3.90;3.60;;;;;;;22.31;67.50;99350.94;5071884;28;20590;-59
2022/07/15 00:35:57;;;;;;;4.07;3.67;;;;;;;22.23;68.30;99342.78;5071772;28;20641;-59
2022/07/15 00:38:24;;;;;;;4.75;4.25;;;;;;;22.27;68.31;99349.47;5071347;28;20206;-59
2022/07/15 00:40:51;;;;;;;8.05;4.07;;;;;;;22.26;68.45;99344.31;5071442;28;20286;-59
2022/07/15 00:43:20;;;;;;;4.38;3.90;;;;;;;22.14;69.16;99343.47;5071683;28;20716;-55
2022/07/15 00:45:48;;;;;;;9.73;4.40;;;;;;;22.15;69.21;99346.97;5071286;28;20203;-55
2022/07/15 00:48:15;;;;;;;4.40;4.00;;;;;;;22.14;69.61;99342.63;5071317;28;20192;-59
2022/07/15 00:50:42;;;;;;;4.32;4.00;;;;;;;22.12;69.64;99350.72;5071525;28;20200;-60
2022/07/15 00:53:14;;;;;;;7.10;4.75;;;;;;;22.09;69.74;99341.22;5070707;28;20719;-59
2022/07/15 00:55:44;;;;;;;7.20;4.45;;;;;;;22.08;69.58;99343.97;5071829;28;20350;-55
2022/07/15 00:58:15;;;;;;;4.72;4.03;;;;;;;21.85;70.53;99318.47;5071388;28;20196;-59
2022/07/15 01:00:44;;;;;;;8.15;4.82;;;;;;;21.84;70.90;99332.66;5071387;28;20192;-59
2022/07/15 01:03:11;;;;;;;6.45;4.20;;;;;;;21.72;71.82;99323.88;5071257;28;20715;-60
2022/07/15 01:05:38;;;;;;;4.97;4.35;;;;;;;21.78;72.02;99333.16;5071244;28;20641;-59
2022/07/15 01:08:06;;;;;;;7.18;5.32;;;;;;;21.68;72.37;99319.78;5070628;28;20238;-59
2022/07/15 01:10:35;;;;;;;4.90;4.03;;;;;;;21.63;73.65;99330.72;5070864;28;20195;-60
2022/07/15 01:13:04;;;;;;;10.40;4.32;;;;;;;21.51;74.13;99321.09;5071370;28;20302;-60
2022/07/15 01:15:32;;;;;;;4.70;4.22;;;;;;;21.51;74.71;99330.81;5070974;28;20191;-55
2022/07/15 01:18:03;;;;;;;4.30;3.90;;;;;;;21.45;75.45;99326.84;5070880;28;20228;-55
2022/07/15 01:20:31;;;;;;;4.70;4.30;;;;;;;21.42;75.65;99324.44;5071090;28;20203;-55
2022/07/15 01:23:00;;;;;;;4.10;3.78;;;;;;;21.34;76.56;99322.38;5071448;28;20625;-54
2022/07/15 01:25:27;;;;;;;5.07;4.68;;;;;;;21.22;77.33;99312.75;5071320;28;20195;-59
2022/07/15 01:27:54;;;;;;;3.97;3.65;;;;;;;21.19;77.56;99318.28;5071350;28;20628;-60
2022/07/15 01:30:21;;;;;;;4.38;4.07;;;;;;;21.27;77.35;99315.03;5071216;28;20196;-60
2022/07/15 01:32:48;;;;;;;4.20;3.80;;;;;;;21.38;77.03;99315.91;5070882;28;20302;-60
2022/07/15 01:35:15;;;;;;;4.60;3.88;;;;;;;21.27;77.56;99299.22;5071033;28;20287;-60
2022/07/15 01:37:42;;;;;;;5.93;3.88;;;;;;;21.24;77.98;99307.34;5070912;28;20192;-60
2022/07/15 01:40:12;;;;;;;4.28;3.88;;;;;;;21.23;77.88;99309.16;5070841;28;20195;-59
2022/07/15 01:42:38;;;;;;;5.35;3.80;;;;;;;21.20;78.22;99306.75;5070704;28;20712;-59
2022/07/15 01:45:06;;;;;;;4.10;3.80;;;;;;;21.17;78.07;99303.47;5070601;28;20200;-59
2022/07/15 01:47:34;;;;;;;5.93;4.30;;;;;;;21.20;77.95;99304.13;5070570;28;20668;-59
2022/07/15 01:50:00;;;;;;;5.82;3.80;;;;;;;21.13;78.60;99307.28;5070664;28;20207;-59
2022/07/15 01:52:27;;;;;;;3.95;3.65;;;;;;;21.11;79.48;99314.47;5070803;28;20688;-58
2022/07/15 01:54:54;;;;;;;4.03;3.72;;;;;;;21.11;79.87;99311.84;5070582;28;20196;-59
2022/07/15 01:57:22;;;;;;;5.10;4.00;;;;;;;21.09;80.57;99326.97;5070685;28;20206;-59
2022/07/15 01:59:49;;;;;;;8.85;4.50;;;;;;;21.01;81.71;99325.72;5070606;28;20286;-59
2022/07/15 02:02:16;;;;;;;5.18;4.50;;;;;;;20.96;82.66;99338.44;5070445;28;20192;-58
2022/07/15 02:04:43;;;;;;;5.25;4.57;;;;;;;20.87;83.64;99333.84;5070041;28;20302;-59
2022/07/15 02:07:10;;;;;;;5.22;4.47;;;;;;;20.81;84.53;99329.00;5070245;28;20195;-58
2022/07/15 02:09:37;;;;;;;5.85;4.70;;;;;;;20.76;85.32;99328.53;5070323;28;20237;-54
2022/07/15 02:12:05;;;;;;;5.68;4.30;;;;;;;20.56;86.14;99329.13;5070246;28;20202;-55
2022/07/15 02:14:33;;;;;;;5.53;4.15;;;;;;;20.39;86.50;99316.31;5070346;28;20249;-54
2022/07/15 02:17:01;;;;;;;6.95;4.60;;;;;;;20.45;86.26;99329.91;5070218;28;20253;-54
2022/07/15 02:19:28;;;;;;;7.72;4.40;;;;;;;20.49;85.91;99325.25;5070178;28;20196;-54
2022/07/15 02:21:54;;;;;;;4.55;4.15;;;;;;;20.51;86.08;99328.63;5070425;28;20222;-54
2022/07/15 02:24:21;;;;;;;4.47;4.18;;;;;;;20.52;85.49;99328.50;5070216;28;20188;-55
2022/07/15 02:26:49;;;;;;;10.70;4.15;;;;;;;20.45;85.16;99332.53;5070354;28;20282;-54
2022/07/15 02:29:16;;;;;;;6.60;4.40;;;;;;;20.29;85.28;99324.03;5070291;28;20585;-54
2022/07/15 02:31:45;;;;;;;7.38;3.50;;;;;;;20.40;84.99;99333.84;5070118;28;20196;-55
2022/07/15 02:34:12;;;;;;;11.93;3.78;;;;;;;20.35;84.16;99333.28;5070321;28;20222;-55
2022/07/15 02:36:39;;;;;;;5.50;3.83;;;;;;;20.31;83.41;99330.84;5069674;28;20245;-55
2022/07/15 02:39:06;;;;;;;6.32;4.80;;;;;;;20.30;83.22;99338.91;5068790;28;20203;-55
2022/07/15 02:41:33;;;;;;;6.40;5.70;;;;;;;20.32;82.92;99344.88;5066071;28;20265;-55
2022/07/15 02:44:02;;;;;;;8.73;7.82;;;;;;;20.33;82.54;99340.44;5068673;28;20223;-59
2022/07/15 02:46:29;;;;;;;13.07;9.25;;;;;;;20.34;82.17;99350.03;5068782;28;20586;-59
2022/07/15 02:48:57;;;;;;;11.35;10.00;;;;;;;20.42;81.77;99342.47;5068656;28;20295;-59
2022/07/15 02:51:24;;;;;;;7.40;6.80;;;;;;;20.47;80.46;99338.53;5068833;28;20734;-55
2022/07/15 02:53:51;;;;;;;5.40;4.30;;;;;;;20.55;79.53;99343.25;5068608;28;20775;-54
2022/07/15 02:56:18;;;;;;;4.45;3.90;;;;;;;20.54;79.68;99341.59;5068648;28;20194;-55
2022/07/15 02:58:45;;;;;;;5.07;3.63;;;;;;;20.44;79.33;99324.72;5068459;28;20200;-54
2022/07/15 03:01:12;;;;;;;4.63;4.20;;;;;;;20.53;79.49;99350.47;5065960;28;20214;-54
2022/07/15 03:03:39;;;;;;;3.55;3.33;;;;;;;20.51;79.65;99341.81;5068395;28;20192;-58
2022/07/15 03:06:08;;;;;;;6.32;4.15;;;;;;;20.54;79.82;99346.88;5068667;28;20584;-55
2022/07/15 03:08:35;;;;;;;6.03;3.47;;;;;;;20.43;80.41;99339.69;5065830;28;20613;-55
2022/07/15 03:11:02;;;;;;;4.28;3.97;;;;;;;20.39;80.74;99329.50;5068419;28;20196;-56
2022/07/15 03:13:29;;;;;;;5.97;4.30;;;;;;;20.40;81.46;99341.75;5068310;28;20703;-54
2022/07/15 03:15:56;;;;;;;4.97;4.22;;;;;;;20.39;81.97;99333.00;5069845;28;20191;-54
2022/07/15 03:18:23;;;;;;;9.93;8.88;;;;;;;20.44;81.56;99330.00;5072146;28;20202;-54
2022/07/15 03:20:50;;;;;;;5.18;4.70;;;;;;;20.51;80.94;99331.25;5072520;28;20200;-58
2022/07/15 03:23:18;;;;;;;5.78;4.43;;;;;;;20.60;79.90;99331.44;5067931;28;20206;-55
2022/07/15 03:25:45;;;;;;;5.40;4.35;;;;;;;20.64;79.66;99338.19;5071465;28;20230;-56
2022/07/15 03:28:12;;;;;;;7.88;4.40;;;;;;;20.64;79.64;99332.06;5072279;28;20198;-55
2022/07/15 03:30:39;;;;;;;7.63;4.82;;;;;;;20.74;79.37;99330.44;5070496;28;20269;-59
2022/07/15 03:33:06;;;;;;;8.07;4.72;;;;;;;20.70;79.24;99330.75;5073445;28;20226;-59
2022/07/15 03:35:33;;;;;;;6.88;5.18;;;;;;;20.78;77.80;99329.22;5073347;28;20244;-58
2022/07/15 03:38:00;;;;;;;5.22;4.57;;;;;;;20.89;77.18;99331.06;5063394;28;20192;-59
2022/07/15 03:40:28;;;;;;;7.30;4.78;;;;;;;20.97;75.76;99334.84;5071108;28;20203;-59
2022/07/15 03:42:55;;;;;;;4.57;4.13;;;;;;;21.08;73.97;99341.97;5071363;28;20203;-59
2022/07/15 03:45:23;;;;;;;4.07;3.83;;;;;;;21.09;72.36;99332.25;5069720;28;20343;-60
2022/07/15 03:47:50;;;;;;;4.13;3.83;;;;;;;21.18;71.87;99340.34;5071078;28;20245;-54
2022/07/15 03:50:17;;;;;;;4.40;3.58;;;;;;;21.22;71.32;99331.22;5071024;28;20192;-60
2022/07/15 03:52:44;;;;;;;3.65;3.10;;;;;;;21.31;71.20;99340.28;5070964;28;20678;-59
2022/07/15 03:55:11;;;;;;;3.67;3.25;;;;;;;21.35;71.10;99336.41;5071292;28;20204;-58
2022/07/15 03:57:40;;;;;;;4.03;3.38;;;;;;;21.82;69.80;99337.22;5070839;28;20253;-59
2022/07/15 04:00:08;;;;;;;3.88;3.42;;;;;;;23.33;63.20;99344.34;5070028;28;20207;-55
2022/07/15 04:02:35;;;;;;;4.13;3.00;;;;;;;25.05;56.19;99348.69;5066749;28;20675;-54
2022/07/15 04:05:02;;;;;;;4.50;3.60;;;;;;;26.99;49.99;99354.97;5068184;28;20196;-54
2022/07/15 04:07:28;;;;;;;5.65;4.47;;;;;;;28.45;45.16;99350.63;5068810;28;20354;-60
2022/07/15 04:09:55;;;;;;;25.10;5.30;;;;;;;29.71;41.75;99355.59;5067467;28;20192;-59
2022/07/15 04:12:23;;;;;;;9.70;3.92;;;;;;;30.61;39.38;99358.84;5069541;28;20196;-60
2022/07/15 04:14:51;;;;;;;4.78;3.30;;;;;;;31.93;36.84;99361.19;5068965;28;20657;-60
2022/07/15 04:17:18;;;;;;;6.00;3.30;;;;;;;32.64;35.50;99354.25;5069719;28;20671;-60
2022/07/15 04:19:45;;;;;;;3.78;2.97;;;;;;;33.10;33.75;99355.59;5069103;28;20207;-56
2022/07/15 04:22:12;;;;;;;4.65;3.20;;;;;;;34.03;32.88;99356.34;5069497;28;20672;-57
2022/07/15 04:24:39;;;;;;;5.45;3.13;;;;;;;34.83;31.22;99355.69;5069257;28;20188;-56
2022/07/15 04:27:06;;;;;;;3.95;2.80;;;;;;;34.85;30.99;99361.72;5068964;28;20283;-56
2022/07/15 04:29:35;;;;;;;3.15;2.95;;;;;;;35.99;29.02;99360.53;5064267;28;20578;-60
2022/07/15 04:32:04;;;;;;;4.95;3.15;;;;;;;37.03;28.19;99359.44;5070031;28;20203;-60
2022/07/15 04:34:31;;;;;;;4.35;3.30;;;;;;;37.21;26.89;99364.97;5071748;28;20222;-60
2022/07/15 04:36:58;;;;;;;10.20;3.33;;;;;;;37.34;26.75;99369.47;5071831;28;20192;-59
2022/07/15 04:39:25;;;;;;;4.43;3.22;;;;;;;37.65;26.78;99366.72;5070465;28;20586;-59
2022/07/15 04:41:52;;;;;;;4.55;4.13;;;;;;;38.33;25.72;99368.50;5070255;28;20198;-58
2022/07/15 04:44:19;;;;;;;3.50;3.28;;;;;;;38.80;25.26;99367.72;5060045;28;20220;-59
2022/07/15 04:46:46;;;;;;;6.03;3.55;;;;;;;38.89;25.27;99376.34;5049297;28;20251;-59
2022/07/15 04:51:59;;;;;;;8.35;3.35;;;;;;;39.38;24.14;99367.06;5057293;28;20226;-60
2022/07/15 04:54:26;;;;;;;8.18;3.15;;;;;;;38.77;24.77;99365.44;5078463;28;20234;-58
2022/07/15 04:56:52;;;;;;;4.57;2.90;;;;;;;39.09;24.83;99365.22;5065223;28;20202;-59
2022/07/15 04:59:19;;;;;;;6.70;3.13;;;;;;;39.89;23.56;99371.84;5069293;28;20690;-60
2022/07/15 05:01:46;;;;;;;6.50;2.85;;;;;;;40.54;22.90;99377.03;5070064;28;20200;-59
2022/07/15 05:04:15;;;;;;;4.18;3.47;;;;;;;40.63;22.91;99381.00;5069795;28;20183;-58
2022/07/15 05:06:42;;;;;;;5.75;2.97;;;;;;;40.25;23.02;99376.16;5070032;28;20214;-60
2022/07/15 05:09:09;;;;;;;4.03;3.70;;;;;;;40.36;23.25;99382.66;5070765;28;20227;-59
2022/07/15 05:11:35;;;;;;;4.03;3.20;;;;;;;40.98;22.54;99383.59;5070939;28;20206;-60
2022/07/15 05:14:02;;;;;;;3.55;3.33;;;;;;;41.26;22.32;99379.22;5070952;28;20215;-59
2022/07/15 05:16:30;;;;;;;3.60;3.30;;;;;;;40.71;22.49;99381.75;5070902;28;20199;-54
2022/07/15 05:18:57;;;;;;;3.78;3.08;;;;;;;40.59;22.58;99376.31;5071391;28;20199;-54
2022/07/15 05:21:25;;;;;;;5.28;2.90;;;;;;;40.92;22.45;99387.31;5071215;28;20565;-54
2022/07/15 05:23:52;;;;;;;5.45;3.03;;;;;;;41.65;21.39;99386.41;5071208;28;20207;-54
2022/07/15 05:26:19;;;;;;;3.08;2.50;;;;;;;41.52;21.62;99384.03;5070964;28;20290;-53
2022/07/15 05:28:46;;;;;;;3.78;2.65;;;;;;;41.52;21.74;99383.19;5070620;28;20588;-59
2022/07/15 05:31:13;;;;;;;10.90;3.33;;;;;;;41.62;21.95;99389.66;5070771;28;20215;-60
2022/07/15 05:33:40;;;;;;;4.32;2.53;;;;;;;41.14;22.12;99384.75;5051002;28;20311;-54
2022/07/15 05:36:12;;;;;;;5.15;2.95;;;;;;;41.79;22.01;99394.25;5051262;28;20218;-59
2022/07/15 05:38:41;;;;;;;10.15;3.22;;;;;;;41.94;21.89;99391.75;5050787;28;20692;-55
2022/07/15 05:41:09;;;;;;;7.47;2.60;;;;;;;41.59;22.30;99386.59;5062799;28;20329;-54
2022/07/15 05:43:36;;;;;;;3.38;3.08;;;;;;;41.55;21.95;99396.34;5070349;28;20198;-54
2022/07/15 05:46:03;;;;;;;6.65;2.63;;;;;;;40.78;22.57;99394.13;5070298;28;20195;-54
2022/07/15 05:48:30;;;;;;;5.22;2.65;;;;;;;41.14;22.22;99395.63;5070632;28;20195;-53
2022/07/15 05:50:57;;;;;;;3.15;2.63;;;;;;;40.02;23.31;99395.22;5070811;28;20199;-53
2022/07/15 05:53:24;;;;;;;3.70;2.88;;;;;;;39.42;23.84;99389.97;5070591;28;20207;-53
2022/07/15 05:55:52;;;;;;;7.20;3.53;;;;;;;39.67;23.86;99387.06;5070641;28;20730;-54
2022/07/15 05:58:19;;;;;;;5.60;3.17;;;;;;;39.85;23.63;99399.72;5071008;28;20670;-54
2022/07/15 06:00:46;;;;;;;3.28;2.97;;;;;;;40.26;23.14;99402.28;5070627;28;20582;-54
2022/07/15 06:03:13;;;;;;;7.22;3.00;;;;;;;40.57;23.16;99400.22;5070440;28;20287;-59
2022/07/15 06:05:40;;;;;;;4.82;2.90;;;;;;;40.58;22.93;99399.97;5070588;28;20192;-59
2022/07/15 06:08:07;;;;;;;5.28;2.97;;;;;;;40.24;22.74;99395.44;5070490;28;20237;-60
2022/07/15 06:10:34;;;;;;;6.70;3.05;;;;;;;39.58;23.26;99393.09;5070472;28;20214;-60
2022/07/15 06:13:02;;;;;;;4.55;3.10;;;;;;;40.08;23.46;99393.44;5070873;28;20310;-59
2022/07/15 06:15:29;;;;;;;6.72;3.13;;;;;;;39.02;24.17;99388.94;5070234;28;20219;-60
2022/07/15 06:17:56;;;;;;;3.33;2.83;;;;;;;39.06;23.92;99369.22;5069411;28;20201;-59
2022/07/15 06:20:23;;;;;;;2.90;2.80;;;;;;;39.36;24.07;99379.22;5069963;28;20199;-59
2022/07/15 06:22:50;;;;;;;7.20;3.10;;;;;;;40.31;23.25;99392.59;5069623;28;20191;-59
2022/07/15 06:25:17;;;;;;;4.05;3.28;;;;;;;39.93;23.67;99383.06;5069987;28;20578;-59
2022/07/15 06:27:44;;;;;;;15.18;3.45;;;;;;;39.37;23.97;99380.88;5070005;28;20279;-59
2022/07/15 06:30:13;;;;;;;9.25;3.58;;;;;;;39.70;24.30;99380.31;5070431;28;20202;-59
2022/07/15 06:32:40;;;;;;;3.42;3.22;;;;;;;39.89;23.39;99381.88;5070144;28;20606;-59
2022/07/15 06:35:07;;;;;;;4.78;2.90;;;;;;;39.71;24.54;99385.53;5070134;28;20262;-58
2022/07/15 06:37:34;;;;;;;3.90;3.28;;;;;;;39.84;23.52;99377.19;5069830;28;20205;-59
2022/07/15 06:40:02;;;;;;;6.28;3.67;;;;;;;39.18;23.82;99366.53;5070074;28;20282;-59
2022/07/15 06:42:29;;;;;;;4.97;3.47;;;;;;;38.17;25.30;99364.53;5070033;28;20277;-59
2022/07/15 06:44:56;;;;;;;4.40;3.30;;;;;;;38.03;25.69;99363.00;5070354;28;20196;-60
2022/07/15 06:47:25;;;;;;;4.45;3.80;;;;;;;38.05;25.43;99356.28;5069627;28;20195;-59
2022/07/15 06:49:52;;;;;;;9.25;4.78;;;;;;;38.17;25.57;99358.28;5068211;28;20298;-59
2022/07/15 06:52:19;;;;;;;7.18;4.65;;;;;;;37.69;26.09;99348.97;5071276;28;20286;-60
2022/07/15 06:54:46;;;;;;;5.57;3.95;;;;;;;37.13;27.01;99351.69;5073317;28;20334;-53
2022/07/15 06:57:16;;;;;;;12.82;4.85;;;;;;;36.99;27.33;99345.53;5073209;28;20287;-53
2022/07/15 06:59:43;;;;;;;7.93;5.30;;;;;;;37.05;27.22;99344.66;5073463;28;20203;-54
2022/07/15 07:02:10;;;;;;;9.20;4.47;;;;;;;37.04;27.43;99343.00;5073486;28;20599;-54
2022/07/15 07:04:38;;;;;;;4.30;4.00;;;;;;;36.34;27.94;99341.31;5073331;28;20227;-54
2022/07/15 07:07:05;;;;;;;9.02;4.50;;;;;;;36.27;28.31;99343.19;5073525;28;20195;-54
2022/07/15 07:09:32;;;;;;;13.73;5.05;;;;;;;36.26;28.30;99344.22;5073421;28;20220;-53
2022/07/15 07:11:59;;;;;;;11.63;4.03;;;;;;;36.16;28.66;99343.81;5073848;28;20202;-55
2022/07/15 07:14:26;;;;;;;9.20;3.55;;;;;;;36.01;28.79;99339.50;5073099;28;20226;-54
2022/07/15 07:16:53;;;;;;;9.82;4.55;;;;;;;35.52;28.98;99336.47;5073169;28;20200;-53
2022/07/15 07:19:20;;;;;;;6.82;4.00;;;;;;;36.01;29.01;99342.19;5072816;28;20200;-54
2022/07/15 07:21:48;;;;;;;6.78;3.30;;;;;;;36.15;28.39;99342.16;5072865;28;20282;-54
2022/07/15 07:24:15;;;;;;;3.92;3.50;;;;;;;36.39;28.17;99338.78;5073187;28;20192;-55
2022/07/15 07:26:42;;;;;;;7.25;3.42;;;;;;;36.88;27.32;99337.28;5072821;28;20290;-54
2022/07/15 07:29:12;;;;;;;6.68;2.85;;;;;;;36.75;26.84;99340.91;5072929;28;20647;-55
2022/07/15 07:31:39;;;;;;;8.13;3.13;;;;;;;36.34;27.68;99335.91;5072870;28;20192;-53
2022/07/15 07:34:06;;;;;;;4.65;2.80;;;;;;;36.18;27.89;99341.75;5072895;28;20220;-54
2022/07/15 07:36:33;;;;;;;3.63;2.63;;;;;;;36.10;27.94;99344.69;5072525;28;20283;-59
2022/07/15 07:39:01;;;;;;;7.20;2.80;;;;;;;36.48;27.60;99337.47;5073041;28;20683;-59
2022/07/15 07:41:28;;;;;;;5.57;2.75;;;;;;;37.05;27.17;99341.13;5072788;28;20765;-59
2022/07/15 07:43:55;;;;;;;3.30;2.67;;;;;;;37.54;26.99;99337.63;5072655;28;20679;-60
2022/07/15 07:46:22;;;;;;;5.13;3.15;;;;;;;37.48;26.96;99337.66;5071982;28;20683;-59
2022/07/15 07:48:49;;;;;;;6.53;2.80;;;;;;;38.12;27.19;99340.81;5072732;28;20231;-58
2022/07/15 07:51:18;;;;;;;6.47;2.92;;;;;;;37.84;25.66;99343.19;5072625;28;20636;-59
2022/07/15 07:53:46;;;;;;;2.80;2.28;;;;;;;37.74;25.70;99343.69;5072467;28;20238;-60
2022/07/15 07:56:14;;;;;;;4.78;3.00;;;;;;;38.02;25.80;99339.66;5072424;28;20734;-60
2022/07/15 07:58:41;;;;;;;4.47;2.33;;;;;;;38.00;25.78;99330.94;5072230;28;20727;-60
2022/07/15 08:01:09;;;;;;;7.90;2.70;;;;;;;38.47;25.28;99334.75;5072153;28;20199;-60
2022/07/15 08:03:36;;;;;;;2.45;2.35;;;;;;;38.60;24.26;99331.91;5072160;28;20241;-59
2022/07/15 08:06:03;;;;;;;4.47;3.10;;;;;;;38.84;24.73;99328.19;5072270;28;20706;-60
2022/07/15 08:08:30;;;;;;;2.78;2.22;;;;;;;38.76;23.79;99323.09;5071282;28;20715;-59
2022/07/15 08:10:58;;;;;;;4.85;2.45;;;;;;;39.20;23.50;99332.66;5071549;28;20584;-60
2022/07/15 08:13:28;;;;;;;2.80;2.40;;;;;;;39.51;22.69;99334.25;5071367;28;20199;-59
2022/07/15 08:15:56;;;;;;;3.85;2.50;;;;;;;39.52;23.03;99326.91;5071213;28;20211;-60
2022/07/15 08:18:24;;;;;;;5.03;2.67;;;;;;;40.33;22.30;99330.63;5071729;28;20648;-54
2022/07/15 08:20:51;;;;;;;2.50;2.30;;;;;;;40.17;22.05;99327.59;5069139;28;20681;-54
2022/07/15 08:23:20;;;;;;;2.50;2.40;;;;;;;39.91;22.44;99328.09;5064132;28;20196;-55
2022/07/15 08:25:49;;;;;;;2.45;2.13;;;;;;;40.17;21.99;99332.19;5068840;28;20714;-54
2022/07/15 08:28:17;;;;;;;5.90;3.58;;;;;;;40.69;21.72;99324.81;5069544;28;20197;-53
2022/07/15 08:30:46;;;;;;;2.88;2.65;;;;;;;40.44;22.33;99327.03;5070259;28;20191;-54
2022/07/15 08:33:13;;;;;;;3.28;2.97;;;;;;;40.50;22.36;99326.09;5070230;28;20223;-55
2022/07/15 08:35:41;;;;;;;11.15;2.80;;;;;;;39.93;22.45;99336.84;5070026;28;20215;-53
2022/07/15 08:38:09;;;;;;;6.05;2.60;;;;;;;39.82;22.63;99327.63;5067542;28;20199;-53
2022/07/15 08:40:37;;;;;;;4.20;2.72;;;;;;;39.50;22.87;99318.19;5069958;28;20290;-55
2022/07/15 08:43:07;;;;;;;3.85;2.90;;;;;;;39.42;23.26;99318.53;5070351;28;20668;-54
2022/07/15 08:45:36;;;;;;;3.58;2.80;;;;;;;38.86;23.82;99317.09;5069890;28;20196;-54
2022/07/15 08:48:06;;;;;;;4.05;3.28;;;;;;;38.04;24.60;99305.00;5069541;28;20594;-54
2022/07/15 08:50:33;;;;;;;2.97;2.78;;;;;;;38.00;24.88;99304.66;5068996;28;20191;-53
2022/07/15 08:53:01;;;;;;;4.38;2.55;;;;;;;37.98;24.30;99312.19;5068566;28;20226;-54
2022/07/15 08:55:28;;;;;;;3.90;3.00;;;;;;;37.23;24.94;99297.91;5067124;28;20596;-54
2022/07/15 08:57:55;;;;;;;3.88;2.75;;;;;;;37.18;25.62;99303.16;5069269;28;20305;-54
2022/07/15 09:00:28;;;;;;;3.17;2.45;;;;;;;37.00;25.37;99301.19;5068390;28;20210;-53
2022/07/15 09:02:56;;;;;;;5.38;2.90;;;;;;;37.24;25.62;99293.34;5068517;28;20226;-59
2022/07/15 09:05:27;;;;;;;5.05;2.25;;;;;;;36.82;25.51;99293.00;5068076;28;20731;-59
2022/07/15 09:08:03;;;;;;;2.63;2.42;;;;;;;36.92;25.28;99295.22;5068263;28;20235;-59
2022/07/15 09:10:48;;;;;;;3.22;2.60;;;;;;;37.20;25.06;99292.94;5069372;28;20199;-59
2022/07/15 09:13:25;;;;;;;5.47;2.85;;;;;;;37.26;24.64;99292.03;5067935;28;20658;-58
2022/07/15 09:15:54;;;;;;;2.45;2.30;;;;;;;37.13;24.35;99289.44;5067533;28;20208;-59
2022/07/15 09:18:23;;;;;;;3.05;2.60;;;;;;;36.79;25.35;99284.50;5069775;28;20664;-59
2022/07/15 09:20:51;;;;;;;2.65;2.17;;;;;;;36.80;24.63;99286.16;5069601;28;20656;-59
2022/07/15 09:23:23;;;;;;;4.97;2.58;;;;;;;36.42;24.56;99278.88;5068665;28;20184;-59
2022/07/15 09:25:51;;;;;;;2.80;2.60;;;;;;;36.67;24.49;99282.47;5067014;28;20663;-59
2022/07/15 09:28:18;;;;;;;4.03;2.33;;;;;;;36.67;24.75;99278.94;5069148;28;20209;-58
2022/07/15 09:33:36;;;;;;;5.55;2.20;;;;;;;36.78;24.87;99261.22;5067293;28;20630;-59
2022/07/15 09:36:14;;;;;;;2.47;1.88;;;;;;;36.84;24.92;99276.53;5068970;28;20212;-59
2022/07/15 09:38:49;;;;;;;2.47;2.28;;;;;;;37.21;24.96;99272.94;5069022;28;20274;-59
2022/07/15 09:41:30;;;;;;;5.75;2.30;;;;;;;37.43;24.05;99268.78;5067388;28;20187;-58
2022/07/15 09:44:00;;;;;;;2.63;2.30;;;;;;;37.33;24.22;99271.16;5067569;28;20187;-58
2022/07/15 09:46:29;;;;;;;3.67;2.30;;;;;;;36.97;23.87;99271.88;5063546;28;20194;-59
2022/07/15 09:48:57;;;;;;;3.88;1.98;;;;;;;36.72;22.96;99262.91;5068956;28;20188;-59
2022/07/15 09:51:25;;;;;;;2.22;2.03;;;;;;;36.69;24.00;99264.16;5068527;28;20393;-59
2022/07/15 09:53:52;;;;;;;5.75;2.25;;;;;;;36.95;23.67;99262.31;5068926;28;20283;-58
2022/07/15 09:56:23;;;;;;;5.60;2.35;;;;;;;37.41;23.58;99259.22;5068845;28;20216;-58
2022/07/15 09:58:50;;;;;;;2.28;2.00;;;;;;;37.30;23.52;99259.94;5066482;28;20642;-58
2022/07/15 10:01:17;;;;;;;3.58;2.03;;;;;;;37.35;23.16;99252.00;5068693;28;20191;-58
2022/07/15 10:03:45;;;;;;;5.47;2.05;;;;;;;37.40;23.30;99255.69;5068433;28;20286;-58
2022/07/15 10:06:16;;;;;;;3.55;2.22;;;;;;;37.27;22.89;99254.97;5068939;28;20279;-58
2022/07/15 10:08:47;;;;;;;2.85;2.20;;;;;;;37.75;23.70;99250.53;5068608;28;20607;-58
2022/07/15 10:11:14;;;;;;;4.90;2.28;;;;;;;38.04;22.58;99245.38;5068641;28;20203;-59
2022/07/15 10:14:17;;;;;;;2.40;2.20;;;;;;;37.65;23.71;99246.72;5068762;28;20219;-58
2022/07/15 10:17:26;;;;;;;4.97;2.22;;;;;;;36.91;23.63;99245.69;5068197;28;20368;-58
2022/07/15 10:20:18;;;;;;;2.38;2.17;;;;;;;36.99;23.75;99241.88;5061360;28;20195;-59
2022/07/15 10:22:57;;;;;;;6.75;1.95;;;;;;;36.53;24.13;99236.81;5066489;28;20234;-58
2022/07/15 10:25:39;;;;;;;2.58;2.33;;;;;;;36.47;24.34;99233.06;5066928;28;20690;-58
2022/07/15 10:28:13;;;;;;;5.85;2.20;;;;;;;36.29;24.18;99238.41;5066754;28;20253;-58
2022/07/15 10:30:42;;;;;;;4.28;2.08;;;;;;;35.93;24.18;99230.84;5066950;28;20202;-54
2022/07/15 10:33:13;;;;;;;5.97;1.90;;;;;;;35.38;24.14;99221.44;5064656;28;20196;-52
2022/07/15 10:35:43;;;;;;;3.70;1.88;;;;;;;35.25;24.87;99222.31;5066511;28;20711;-54
2022/07/15 10:38:32;;;;;;;2.05;1.70;;;;;;;34.97;25.15;99219.81;5066340;28;20592;-53
2022/07/15 10:41:09;;;;;;;3.10;2.17;;;;;;;35.10;24.95;99219.00;5065942;28;20564;-53
2022/07/15 10:43:42;;;;;;;2.50;2.30;;;;;;;34.95;25.79;99211.94;5065037;28;20192;-59
2022/07/15 10:46:21;;;;;;;7.60;2.10;;;;;;;34.76;25.60;99190.38;5067482;28;20192;-59
2022/07/15 10:48:50;;;;;;;2.38;2.10;;;;;;;34.74;26.01;99195.94;5069385;28;20218;-59
2022/07/15 10:51:47;;;;;;;4.85;2.20;;;;;;;34.36;25.92;99203.78;5069280;28;20200;-58
2022/07/15 10:54:40;;;;;;;2.15;1.90;;;;;;;34.40;26.21;99190.72;5069351;28;20278;-60
2022/07/15 10:57:09;;;;;;;2.45;2.25;;;;;;;34.35;26.33;99188.63;5068118;28;20188;-59
2022/07/15 10:59:41;;;;;;;2.17;2.08;;;;;;;34.25;26.64;99190.88;5068101;28;20210;-59
2022/07/15 11:02:17;;;;;;;4.72;3.47;;;;;;;34.31;26.58;99184.72;5067880;28;20196;-59
2022/07/15 11:04:45;;;;;;;4.10;3.75;;;;;;;34.44;26.14;99187.41;5066300;28;20636;-59
2022/07/15 11:07:38;;;;;;;4.00;3.38;;;;;;;34.66;26.15;99181.81;5068107;28;20199;-59
2022/07/15 11:10:19;;;;;;;4.07;2.78;;;;;;;34.67;26.00;99167.28;5053859;28;20195;-59
2022/07/15 11:12:59;;;;;;;2.90;2.50;;;;;;;34.38;26.37;99174.75;5066349;28;20271;-59
2022/07/15 11:15:27;;;;;;;3.50;1.90;;;;;;;34.43;25.89;99174.13;5066344;28;20227;-59
2022/07/15 11:17:56;;;;;;;3.63;2.25;;;;;;;34.26;26.08;99172.88;5067823;28;20196;-59
2022/07/15 11:20:27;;;;;;;12.13;10.75;;;;;;;34.19;26.94;99167.47;5068310;28;20192;-59
2022/07/15 11:22:57;;;;;;;6.88;3.97;;;;;;;34.08;26.32;99165.34;5068118;28;20200;-59
2022/07/15 11:25:25;;;;;;;10.55;9.50;;;;;;;34.17;26.56;99164.97;5065041;28;20192;-59
2022/07/15 11:28:00;;;;;;;6.50;5.13;;;;;;;34.35;26.82;99160.84;5065162;28;20614;-59
2022/07/15 11:30:28;;;;;;;2.83;2.63;;;;;;;34.38;25.82;99163.16;5063341;28;20765;-58
2022/07/15 11:32:56;;;;;;;5.13;2.85;;;;;;;34.41;26.96;99166.28;5066461;28;20200;-59
2022/07/15 11:35:24;;;;;;;6.70;5.47;;;;;;;34.49;26.58;99154.44;5065829;28;20220;-54
2022/07/15 11:37:59;;;;;;;5.10;4.28;;;;;;;34.51;26.54;99160.47;5069894;28;20268;-54
2022/07/15 11:46:00;;;;;;;10.85;8.75;;;;;;;34.73;26.44;99169.19;5052313;28;20207;-54
2022/07/15 11:48:27;;;;;;;3.83;3.53;;;;;;;34.56;26.92;99161.50;5052268;28;20192;-54
2022/07/15 11:50:56;;;;;;;2.75;2.65;;;;;;;34.38;26.75;99158.59;5052439;28;20235;-53